Preview of NWS' New Version of Forecast
This preview is not operational and should not be used for support decisions.

Terminal Aerodrome Forecast (TAF)

Issued by National Weather Service (NWS)

                            
000
FTUS43 KDMX 200520
TAFALO
TAF
KALO 200520Z 2006/2106 10004KT P6SM BKN150
     FM200900 11004KT P6SM VCTS SCT010 BKN035CB
     FM201400 15008KT P6SM VCSH OVC015
     FM201800 21007KT P6SM SCT020
     FM202100 25008KT P6SM SCT025
     FM210000 34004KT P6SM SCT150=